OIIIOIBK

Guest
Details From OIII - Teheran Mehrabad Intl
To OIBK - Kish Island
Flight Number -
Tags Decoded
Created
Modified
Stats Distance 567 nm / 1,051 km
Max Altitude 0 ft / 0 m
Waypoints 2
Social Downloads 1
Likes 0
Share VATSIM

Download

Looking for another format? Having issues loading an existing format? Contact us
Advertisement - Login to hide

Notes

Decoded

Route

OIII OIBK

ID Type Via Altitude Latitude Longitude Leg Dist Tot Dist Heading (true) Name
O OIII APT - 0 ft / 0 m 35.69663˚ 51.29216˚ - 0 nm - -
O OIBK APT - 0 ft / 0 m 26.52756˚ 53.96192˚ 567 nm 567 nm 165° / 167° -

Altitude Profile

Advertisement - Login to hide

Weather


0- 5 10 15 20 25 30 35+ Temperature / ° C

Clouds and Precipitation
Forecast for 2017-12-11 06:00 UTC. Updated 43 minutes ago

Ground ~20,000 ft ~40,000 ft Winds

OIII

Details ICAO OIII (THR)
Name Teheran Mehrabad Intl
Region Iran
Timezone Asia/Tehran (UTC+3.5)
Stats Elevation 3,962 ft / 1,208 m (AMSL)
Location 35.692631° 51.317409°
Runways 3
Magnetic Variation 4.729° E

METAR

OIII 110600Z 17004KT 5000 2500SE HZ NSC 06/M06 Q1021 A3016 NOSIG

Decode

TAF

TAF OIII 102300Z 1100/1206 28004MPS CAVOK PROB30 1103/1106 4000 HZ NSC TEMPO 1114/1121 28007MPS

Decode

Departure Runways

ID Width Length Bearing (true) Bearing (mag) Surface Threshold Offset Overrun Length
09 131 ft / 40 m 1,553 ft / 473 m 88.25° 83.52° Concrete 0 ft / 0 m 160 ft / 49 m
11L 148 ft / 45 m 13,077 ft / 3,986 m 109.70° 104.97° Asphalt 0 ft / 0 m 1,000 ft / 305 m
11R 197 ft / 60 m 13,227 ft / 4,032 m 109.74° 105.01° Asphalt 3,075 ft / 937 m 1,000 ft / 305 m
27 131 ft / 40 m 1,553 ft / 473 m 268.25° 263.52° Concrete 0 ft / 0 m 90 ft / 27 m
29L 197 ft / 60 m 13,227 ft / 4,032 m 289.77° 285.04° Asphalt 0 ft / 0 m 280 ft / 85 m
29R 148 ft / 45 m 13,077 ft / 3,986 m 289.72° 284.99° Asphalt 0 ft / 0 m 400 ft / 122 m

OIBK

Details ICAO OIBK (KIH)
Name Kish Island
Region Iran
Timezone Asia/Tehran (UTC+3.5)
Stats Elevation 101 ft / 31 m (AMSL)
Location 26.527005° 53.980242°
Runways 3
Magnetic Variation 2.427° E

METAR

OIBK 110600Z 31008KT CAVOK 23/11 Q1020

Decode

TAF

TAF OIBK 102300Z 1100/1206 30004MPS 8000 NSC BECMG 1115/1117 30010MPS BECMG 1204/1206 30004MPS

Decode

Destination Runways

ID Width Length Bearing (true) Bearing (mag) Surface Threshold Offset Overrun Length
09 148 ft / 45 m 11,986 ft / 3,653 m 94.89° 92.46° Asphalt 0 ft / 0 m 1,181 ft / 360 m
09L 215 ft / 66 m 11,986 ft / 3,653 m 94.88° 92.45° Asphalt 0 ft / 0 m 0 ft / 0 m
09R 148 ft / 45 m 11,986 ft / 3,653 m 94.89° 92.46° Asphalt 0 ft / 0 m 1,181 ft / 360 m
27 148 ft / 45 m 11,986 ft / 3,653 m 274.91° 272.48° Asphalt 0 ft / 0 m 190 ft / 58 m
27L 148 ft / 45 m 11,986 ft / 3,653 m 274.90° 272.47° Asphalt 0 ft / 0 m 190 ft / 58 m
27R 215 ft / 66 m 11,986 ft / 3,653 m 274.90° 272.47° Asphalt 0 ft / 0 m 0 ft / 0 m

Popular Alternatives